Time;durP1;ratioP1;P1;durP2;ratioP2;P2;SDS_P1;SDS_P2;PMS_P1;PMS_P2;Temp;Humidity;BMP_temperature;BMP_pressure;BME280_temperature;BME280_humidity;BME280_pressure;Samples;Min_cycle;Max_cycle;Signal;HPM_P1;HPM_P2
2022/10/26 00:01:06;;;;;;;20.17;18.97;;;13.60;99.90;;;;;;4973303;28;20456;-73
2022/10/26 00:03:34;;;;;;;21.07;19.53;;;13.60;99.90;;;;;;4973295;28;20458;-72
2022/10/26 00:06:09;;;;;;;19.60;18.17;;;13.70;99.90;;;;;;4972962;28;20466;-72
2022/10/26 00:08:36;;;;;;;19.73;18.07;;;13.70;99.90;;;;;;4973016;28;20458;-72
2022/10/26 00:11:05;;;;;;;21.40;19.60;;;13.70;99.90;;;;;;4973154;28;20464;-73
2022/10/26 00:13:32;;;;;;;20.73;19.13;;;13.70;99.90;;;;;;4973160;28;20495;-72
2022/10/26 00:15:59;;;;;;;18.83;17.63;;;13.70;99.90;;;;;;4972965;28;20460;-73
2022/10/26 00:18:26;;;;;;;19.13;18.10;;;13.70;99.90;;;;;;4972645;28;20448;-73
2022/10/26 00:20:53;;;;;;;22.20;19.80;;;13.70;99.90;;;;;;4972510;28;20459;-73
2022/10/26 00:23:19;;;;;;;20.50;18.70;;;13.60;99.90;;;;;;4972999;28;20516;-72
2022/10/26 00:25:54;;;;;;;22.67;20.77;;;13.60;99.90;;;;;;4972890;28;20460;-73
2022/10/26 00:28:23;;;;;;;19.17;18.07;;;13.60;99.90;;;;;;4972669;28;20526;-73
2022/10/26 00:30:50;;;;;;;20.60;19.20;;;13.70;99.90;;;;;;4972534;28;20486;-73
2022/10/26 00:33:17;;;;;;;20.00;18.37;;;13.70;99.90;;;;;;4972679;28;20627;-73
2022/10/26 00:35:48;;;;;;;19.37;18.03;;;13.70;99.90;;;;;;4972371;28;20459;-73
2022/10/26 00:38:15;;;;;;;18.47;17.47;;;13.70;99.90;;;;;;4972365;28;20506;-73
2022/10/26 00:40:43;;;;;;;18.80;17.70;;;13.60;99.90;;;;;;4972429;28;20463;-73
2022/10/26 00:43:16;;;;;;;18.93;18.03;;;13.60;99.90;;;;;;4972243;28;20463;-72
2022/10/26 00:45:45;;;;;;;19.77;18.13;;;13.60;99.90;;;;;;4972319;28;20456;-73
2022/10/26 00:48:17;;;;;;;18.97;17.77;;;13.60;99.90;;;;;;4972220;28;20443;-73
2022/10/26 00:50:47;;;;;;;19.00;17.83;;;13.60;99.90;;;;;;4972110;28;20447;-73
2022/10/26 00:53:14;;;;;;;18.80;17.70;;;13.60;99.90;;;;;;4972039;28;20567;-73
2022/10/26 00:55:45;;;;;;;18.03;17.10;;;13.60;99.90;;;;;;4972124;28;20462;-73
2022/10/26 00:58:13;;;;;;;21.20;19.90;;;13.60;99.90;;;;;;4971887;28;20466;-72
2022/10/26 01:00:41;;;;;;;20.13;18.80;;;13.60;99.90;;;;;;4971905;28;20737;-73
2022/10/26 01:03:11;;;;;;;20.93;19.40;;;13.70;99.90;;;;;;4971988;28;20854;-72
2022/10/26 01:05:40;;;;;;;20.37;18.97;;;13.70;99.90;;;;;;4971649;28;20942;-73
2022/10/26 01:08:08;;;;;;;20.20;18.90;;;13.70;99.90;;;;;;4971899;28;20950;-74
2022/10/26 01:10:37;;;;;;;21.03;19.47;;;13.70;99.90;;;;;;4972033;28;20826;-74
2022/10/26 01:13:04;;;;;;;20.43;19.00;;;13.60;99.90;;;;;;4971929;28;20498;-74
2022/10/26 01:15:38;;;;;;;21.73;20.33;;;13.60;99.90;;;;;;4971918;28;20448;-75
2022/10/26 01:18:13;;;;;;;19.63;18.63;;;13.50;99.90;;;;;;4971993;28;20455;-74
2022/10/26 01:21:11;;;;;;;19.80;18.70;;;13.50;99.90;;;;;;4971033;28;20462;-74
2022/10/26 01:23:52;;;;;;;19.30;18.30;;;13.50;99.90;;;;;;4971503;28;20463;-74
2022/10/26 01:26:46;;;;;;;19.43;18.23;;;13.50;99.90;;;;;;4971794;28;20934;-74
2022/10/26 01:29:36;;;;;;;18.53;17.60;;;13.40;99.90;;;;;;4971499;28;20475;-75
2022/10/26 01:32:10;;;;;;;19.87;18.13;;;13.40;99.90;;;;;;4971565;28;20450;-74
2022/10/26 01:34:42;;;;;;;18.37;17.17;;;13.40;99.90;;;;;;4971387;28;20962;-74
2022/10/26 01:37:13;;;;;;;19.67;18.47;;;13.40;99.90;;;;;;4971256;28;20455;-73
2022/10/26 01:39:45;;;;;;;19.63;18.33;;;13.50;99.90;;;;;;4972083;28;20456;-76
2022/10/26 01:42:15;;;;;;;19.97;18.77;;;13.60;99.90;;;;;;4971504;28;20876;-75
2022/10/26 01:44:46;;;;;;;22.13;20.30;;;13.60;99.90;;;;;;4971085;28;20631;-75
2022/10/26 01:47:17;;;;;;;20.60;19.10;;;13.60;99.90;;;;;;4971273;28;20464;-74
2022/10/26 01:49:48;;;;;;;20.87;19.57;;;13.60;99.90;;;;;;4971346;28;20451;-74
2022/10/26 01:52:15;;;;;;;22.57;20.77;;;13.70;99.90;;;;;;4971166;28;20447;-75
2022/10/26 01:54:41;;;;;;;21.50;20.20;;;13.60;99.90;;;;;;4970924;28;20452;-75
2022/10/26 01:57:11;;;;;;;21.53;20.10;;;13.70;99.90;;;;;;4971055;28;20460;-75
2022/10/26 01:59:50;;;;;;;21.23;19.93;;;13.70;99.90;;;;;;4970933;28;20841;-75
2022/10/26 02:02:43;;;;;;;24.23;22.73;;;13.60;99.90;;;;;;4971077;28;20455;-74
2022/10/26 02:05:34;;;;;;;26.07;24.60;;;13.60;99.90;;;;;;4970740;28;20455;-75
2022/10/26 02:08:14;;;;;;;29.30;27.47;;;13.50;99.90;;;;;;4967284;28;20460;-73
2022/10/26 02:10:49;;;;;;;35.07;32.67;;;13.40;99.90;;;;;;4970749;28;20451;-73
2022/10/26 02:13:21;;;;;;;35.10;32.70;;;13.30;99.90;;;;;;4970867;28;20491;-75
2022/10/26 02:15:54;;;;;;;34.87;31.93;;;13.20;99.90;;;;;;4970945;28;20986;-75
2022/10/26 02:18:30;;;;;;;33.77;31.33;;;13.10;99.90;;;;;;4970855;28;20456;-74
2022/10/26 02:21:00;;;;;;;33.27;30.57;;;13.00;99.90;;;;;;4970675;28;20475;-75
2022/10/26 02:23:29;;;;;;;33.97;31.80;;;12.90;99.90;;;;;;4970478;28;20448;-75
2022/10/26 02:25:58;;;;;;;32.03;30.10;;;12.90;99.90;;;;;;4970444;28;20458;-75
2022/10/26 02:28:31;;;;;;;32.83;30.77;;;12.90;99.90;;;;;;4970341;28;20471;-75
2022/10/26 02:31:00;;;;;;;33.33;31.07;;;12.80;99.90;;;;;;4972174;28;20841;-75
2022/10/26 02:33:33;;;;;;;31.93;30.00;;;12.80;99.90;;;;;;4970834;28;20498;-74
2022/10/26 02:36:02;;;;;;;33.07;31.00;;;12.80;99.90;;;;;;4970674;28;20458;-74
2022/10/26 02:38:31;;;;;;;33.37;31.27;;;12.80;99.90;;;;;;4970458;28;20824;-75
2022/10/26 02:40:59;;;;;;;35.50;33.17;;;12.80;99.90;;;;;;4970509;28;20463;-74
2022/10/26 02:43:27;;;;;;;32.70;30.70;;;12.80;99.90;;;;;;4970327;28;20456;-74
2022/10/26 02:45:59;;;;;;;35.10;32.57;;;12.80;99.90;;;;;;4970386;28;20455;-75
2022/10/26 02:48:27;;;;;;;33.87;31.87;;;12.80;99.90;;;;;;4970328;28;20475;-74
2022/10/26 02:51:00;;;;;;;33.03;31.13;;;12.90;99.90;;;;;;4970307;28;20791;-75
2022/10/26 02:53:31;;;;;;;34.50;32.40;;;13.00;99.90;;;;;;4970237;28;20491;-75
2022/10/26 02:56:02;;;;;;;35.47;33.33;;;12.90;99.90;;;;;;4970199;28;20826;-74
2022/10/26 02:58:33;;;;;;;35.23;32.93;;;12.90;99.90;;;;;;4970116;28;20456;-75
2022/10/26 03:01:00;;;;;;;35.53;33.53;;;12.90;99.90;;;;;;4970282;28;20462;-75
2022/10/26 03:03:28;;;;;;;35.23;32.80;;;13.00;99.90;;;;;;4970240;28;20444;-75
2022/10/26 03:05:55;;;;;;;32.80;30.77;;;12.90;99.90;;;;;;4970114;28;20467;-75
2022/10/26 03:08:21;;;;;;;35.13;32.20;;;12.90;99.90;;;;;;4970179;28;20451;-75
2022/10/26 03:10:48;;;;;;;36.03;32.53;;;12.90;99.90;;;;;;4970496;28;20452;-74
2022/10/26 03:13:15;;;;;;;35.70;33.37;;;12.90;99.90;;;;;;4970187;28;20494;-75
2022/10/26 03:15:42;;;;;;;33.63;31.47;;;12.90;99.90;;;;;;4970086;28;20482;-75
2022/10/26 03:18:08;;;;;;;35.00;32.30;;;13.00;99.90;;;;;;4970037;28;20830;-76
2022/10/26 03:20:36;;;;;;;34.17;32.03;;;13.10;99.90;;;;;;4970200;28;20455;-76
2022/10/26 03:23:03;;;;;;;34.87;32.60;;;13.10;99.90;;;;;;4972972;28;20834;-75
2022/10/26 03:25:30;;;;;;;37.07;33.70;;;13.20;99.90;;;;;;4970516;28;20456;-76
2022/10/26 03:27:57;;;;;;;34.00;31.40;;;13.20;99.90;;;;;;4970401;28;20776;-77
2022/10/26 03:30:24;;;;;;;33.80;31.30;;;13.20;99.90;;;;;;4970047;28;20480;-77
2022/10/26 03:32:51;;;;;;;34.57;32.13;;;13.20;99.90;;;;;;4970097;28;20495;-77
2022/10/26 03:35:18;;;;;;;34.30;31.87;;;13.20;99.90;;;;;;4970293;28;20460;-77
2022/10/26 03:37:46;;;;;;;33.30;31.40;;;13.30;99.90;;;;;;4970051;28;20812;-77
2022/10/26 03:40:13;;;;;;;32.53;30.03;;;13.30;99.90;;;;;;4969855;28;20482;-75
2022/10/26 03:42:40;;;;;;;32.73;30.67;;;13.30;99.90;;;;;;4969745;28;20728;-77
2022/10/26 03:45:08;;;;;;;31.33;29.43;;;13.30;99.90;;;;;;4973016;28;20455;-77
2022/10/26 03:47:40;;;;;;;31.97;29.87;;;13.30;99.90;;;;;;4973560;28;20812;-75
2022/10/26 03:50:07;;;;;;;29.33;27.43;;;13.30;99.90;;;;;;4973372;28;20506;-75
2022/10/26 03:52:34;;;;;;;28.87;26.90;;;13.30;99.90;;;;;;4973526;28;20448;-76
2022/10/26 03:55:02;;;;;;;25.63;24.13;;;13.30;99.90;;;;;;4973122;28;21008;-75
2022/10/26 03:57:29;;;;;;;24.40;22.90;;;13.30;99.90;;;;;;4973055;28;20455;-75
2022/10/26 03:59:55;;;;;;;22.47;21.27;;;13.40;99.90;;;;;;4972966;28;20967;-75
2022/10/26 04:02:22;;;;;;;20.53;19.53;;;13.40;99.90;;;;;;4973016;28;20455;-74
2022/10/26 04:04:49;;;;;;;19.73;18.73;;;13.60;99.90;;;;;;4973250;28;20455;-75
2022/10/26 04:07:15;;;;;;;19.30;18.13;;;13.70;99.90;;;;;;4973090;28;20454;-75
2022/10/26 04:09:42;;;;;;;18.77;17.87;;;13.90;99.90;;;;;;4973030;28;20458;-76
2022/10/26 04:12:10;;;;;;;18.67;17.47;;;14.10;99.90;;;;;;4972984;28;20459;-74
2022/10/26 04:17:12;;;;;;;19.50;18.50;;;14.20;99.90;;;;;;5723854;23;20496;-80
2022/10/26 04:19:39;;;;;;;20.07;19.07;;;14.20;99.90;;;;;;5012192;28;20454;-80
2022/10/26 04:22:06;;;;;;;20.80;19.70;;;14.30;99.90;;;;;;5011723;28;20463;-79
2022/10/26 04:24:32;;;;;;;21.03;19.50;;;14.30;99.90;;;;;;5012722;28;20545;-77
2022/10/26 04:26:59;;;;;;;22.03;20.53;;;14.40;99.90;;;;;;5027423;28;20556;-78
2022/10/26 04:29:27;;;;;;;21.70;20.27;;;14.20;99.90;;;;;;5021171;28;20450;-77
2022/10/26 04:31:54;;;;;;;21.83;20.17;;;14.30;99.90;;;;;;5013467;28;20484;-76
2022/10/26 04:34:20;;;;;;;20.90;19.80;;;14.00;99.90;;;;;;5012400;28;20485;-79
2022/10/26 04:36:47;;;;;;;28.67;27.27;;;13.90;99.90;;;;;;5011565;28;20992;-76
2022/10/26 04:39:14;;;;;;;35.93;33.43;;;13.70;99.90;;;;;;5011727;28;20460;-76
2022/10/26 04:41:41;;;;;;;35.97;33.20;;;13.50;99.90;;;;;;5011895;28;20460;-76
2022/10/26 04:44:07;;;;;;;37.20;34.70;;;13.30;99.90;;;;;;5011660;28;20474;-77
2022/10/26 04:46:35;;;;;;;33.60;31.70;;;13.30;99.90;;;;;;5011389;28;20915;-77
2022/10/26 04:49:02;;;;;;;34.10;31.80;;;13.30;99.90;;;;;;5011447;28;20461;-77
2022/10/26 04:51:29;;;;;;;34.93;32.73;;;13.30;99.90;;;;;;5011460;28;20446;-78
2022/10/26 04:53:57;;;;;;;34.30;32.40;;;13.30;99.90;;;;;;5013122;28;20497;-78
2022/10/26 04:56:23;;;;;;;32.10;30.40;;;13.30;99.90;;;;;;5010353;28;20486;-77
2022/10/26 04:58:53;;;;;;;32.60;30.40;;;13.30;99.90;;;;;;5011234;28;20815;-77
2022/10/26 05:01:20;;;;;;;31.97;29.97;;;13.30;99.90;;;;;;5011541;28;20456;-76
2022/10/26 05:03:50;;;;;;;34.80;32.57;;;13.30;99.90;;;;;;5011337;28;20450;-80
2022/10/26 05:06:17;;;;;;;35.00;32.63;;;13.40;99.90;;;;;;5011488;28;20454;-77
2022/10/26 05:08:43;;;;;;;35.03;32.80;;;13.40;99.90;;;;;;5011289;28;20954;-75
2022/10/26 05:11:38;;;;;;;36.20;33.60;;;13.30;99.90;;;;;;5011433;28;20445;-78
2022/10/26 05:14:05;;;;;;;34.80;32.40;;;13.30;99.90;;;;;;5011267;28;20492;-80
2022/10/26 05:16:32;;;;;;;33.20;31.00;;;13.30;99.90;;;;;;5007908;28;20477;-82
2022/10/26 05:19:00;;;;;;;30.83;28.83;;;13.30;99.90;;;;;;5011444;28;20453;-81
2022/10/26 05:21:26;;;;;;;26.97;25.77;;;13.30;99.90;;;;;;5011588;28;20803;-82
2022/10/26 05:23:54;;;;;;;25.87;24.43;;;13.40;99.90;;;;;;5011298;28;20439;-81
2022/10/26 05:26:21;;;;;;;24.20;23.00;;;13.50;99.90;;;;;;5010959;28;20464;-79
2022/10/26 05:28:48;;;;;;;23.60;22.10;;;13.60;99.90;;;;;;5010737;28;20449;-80
2022/10/26 05:31:15;;;;;;;24.70;23.03;;;13.60;99.90;;;;;;5010864;28;20457;-80
2022/10/26 05:33:42;;;;;;;23.27;21.87;;;13.70;99.90;;;;;;5011105;28;20485;-79
2022/10/26 05:36:10;;;;;;;26.37;24.17;;;13.70;99.90;;;;;;5010858;28;20967;-79
2022/10/26 05:38:37;;;;;;;24.53;22.87;;;13.70;99.90;;;;;;5010767;28;20454;-79
2022/10/26 05:41:03;;;;;;;21.63;20.20;;;13.70;99.90;;;;;;5010877;28;20881;-78
2022/10/26 05:43:30;;;;;;;20.27;19.23;;;13.70;99.90;;;;;;5010476;28;20453;-80
2022/10/26 05:45:57;;;;;;;22.47;21.10;;;13.80;99.90;;;;;;5011022;28;20948;-80
2022/10/26 05:48:23;;;;;;;24.80;23.27;;;13.90;99.90;;;;;;5010842;28;20454;-79
2022/10/26 05:50:50;;;;;;;21.07;20.07;;;14.00;99.90;;;;;;5010685;28;20457;-79
2022/10/26 05:53:19;;;;;;;19.67;18.37;;;14.00;99.90;;;;;;5010770;28;20453;-80
2022/10/26 05:55:46;;;;;;;19.87;18.97;;;14.10;99.90;;;;;;5011305;28;20452;-79
2022/10/26 05:58:15;;;;;;;20.80;19.60;;;14.20;99.90;;;;;;5011235;28;20461;-78
2022/10/26 06:00:55;;;;;;;18.63;17.83;;;14.30;99.90;;;;;;5011374;28;20449;-78
2022/10/26 06:03:36;;;;;;;18.90;18.00;;;14.40;99.90;;;;;;5011093;28;20453;-79
2022/10/26 06:06:03;;;;;;;20.57;19.40;;;14.40;99.90;;;;;;5010842;28;20469;-79
2022/10/26 06:08:32;;;;;;;23.00;21.60;;;14.40;99.90;;;;;;5010942;28;20445;-79
2022/10/26 06:11:00;;;;;;;27.40;25.40;;;14.50;99.90;;;;;;5011014;28;20940;-79
2022/10/26 06:13:27;;;;;;;29.20;27.13;;;14.50;99.90;;;;;;5011145;28;20461;-79
2022/10/26 06:16:09;;;;;;;29.37;27.13;;;14.40;99.90;;;;;;5010753;28;20465;-80
2022/10/26 06:18:44;;;;;;;26.13;24.37;;;14.20;99.90;;;;;;5010617;28;20485;-80
2022/10/26 06:21:35;;;;;;;30.63;27.93;;;14.10;99.90;;;;;;5011225;28;20445;-80
2022/10/26 06:24:09;;;;;;;27.00;24.50;;;14.10;99.90;;;;;;5010834;28;20457;-80
2022/10/26 06:26:45;;;;;;;23.83;22.30;;;14.10;99.90;;;;;;5010646;28;20450;-79
2022/10/26 06:29:21;;;;;;;24.73;22.87;;;14.20;99.90;;;;;;5010961;28;20815;-78
2022/10/26 06:31:48;;;;;;;22.93;21.77;;;14.20;99.90;;;;;;5010612;28;20445;-79
2022/10/26 06:34:22;;;;;;;21.00;19.70;;;14.20;99.90;;;;;;5010249;28;20791;-79
2022/10/26 06:36:50;;;;;;;21.77;20.67;;;14.20;99.90;;;;;;5010317;28;20453;-79
2022/10/26 06:39:29;;;;;;;23.53;22.20;;;14.20;99.90;;;;;;5010011;28;20461;-81
2022/10/26 06:41:57;;;;;;;22.10;20.90;;;14.20;99.90;;;;;;5008261;28;20450;-82
2022/10/26 06:44:24;;;;;;;23.10;21.30;;;14.30;99.90;;;;;;5010309;28;20525;-83
2022/10/26 06:46:58;;;;;;;22.20;20.90;;;14.30;99.90;;;;;;5009990;28;20504;-84
2022/10/26 06:49:31;;;;;;;25.40;24.10;;;14.20;99.90;;;;;;5010139;28;20449;-82
2022/10/26 06:52:01;;;;;;;27.73;26.13;;;14.20;99.90;;;;;;5010244;28;20459;-81
2022/10/26 06:54:40;;;;;;;27.20;25.50;;;14.10;99.90;;;;;;5010162;28;20485;-81
2022/10/26 06:57:09;;;;;;;27.93;26.00;;;14.10;99.90;;;;;;5009679;28;20446;-84
2022/10/26 06:59:40;;;;;;;32.40;30.60;;;14.10;99.90;;;;;;5010200;28;20450;-84
2022/10/26 07:02:09;;;;;;;30.60;29.00;;;14.20;99.90;;;;;;5009703;28;20476;-81
2022/10/26 07:04:35;;;;;;;33.30;31.40;;;14.20;99.90;;;;;;5009889;28;20449;-81
2022/10/26 07:07:03;;;;;;;33.13;31.13;;;14.20;99.90;;;;;;5009572;28;20461;-80
2022/10/26 07:09:31;;;;;;;32.80;30.87;;;14.20;99.90;;;;;;5009899;28;20454;-81
2022/10/26 07:11:58;;;;;;;33.60;31.20;;;14.10;99.90;;;;;;5009668;28;20460;-81
2022/10/26 07:14:24;;;;;;;32.90;30.90;;;14.20;99.90;;;;;;5009548;28;20490;-81
2022/10/26 07:16:52;;;;;;;31.67;29.50;;;14.30;99.90;;;;;;5009862;28;20481;-81
2022/10/26 07:19:18;;;;;;;30.33;28.47;;;14.40;99.90;;;;;;5013751;28;21035;-81
2022/10/26 07:21:45;;;;;;;29.10;27.10;;;14.50;99.90;;;;;;5036039;28;20422;-81
2022/10/26 07:24:12;;;;;;;26.40;24.80;;;14.50;99.90;;;;;;5037495;28;20456;-81
2022/10/26 07:26:40;;;;;;;22.37;21.17;;;14.70;99.90;;;;;;5036342;28;20437;-80
2022/10/26 07:29:07;;;;;;;21.00;19.80;;;14.70;99.90;;;;;;5028811;28;20441;-80
2022/10/26 07:31:34;;;;;;;18.83;17.53;;;;;;;;;;5024211;28;20456;-80
2022/10/26 07:34:00;;;;;;;19.83;18.23;;;14.90;99.90;;;;;;5016838;28;20465;-82
2022/10/26 07:36:29;;;;;;;19.07;17.87;;;15.10;99.90;;;;;;5015061;28;20458;-83
2022/10/26 07:38:56;;;;;;;18.90;17.90;;;15.30;99.90;;;;;;5014802;28;20460;-81
2022/10/26 07:41:22;;;;;;;20.50;19.30;;;15.40;99.90;;;;;;5013047;28;20970;-81
2022/10/26 07:43:50;;;;;;;21.73;20.03;;;15.40;99.90;;;;;;5013238;28;20453;-82
2022/10/26 07:46:17;;;;;;;18.80;17.70;;;15.50;99.90;;;;;;5012884;28;20456;-82
2022/10/26 07:48:44;;;;;;;19.00;17.53;;;15.60;99.90;;;;;;5014719;28;20462;-90
2022/10/26 07:51:11;;;;;;;17.57;16.57;;;15.80;99.90;;;;;;5013995;28;20458;-80
2022/10/26 07:53:38;;;;;;;17.00;16.10;;;16.00;99.90;;;;;;5012943;28;20886;-79
2022/10/26 07:56:05;;;;;;;15.87;15.17;;;16.20;99.90;;;;;;5012632;28;20500;-81
2022/10/26 07:58:32;;;;;;;16.57;15.37;;;16.50;99.90;;;;;;5013188;28;20810;-80
2022/10/26 08:01:05;;;;;;;17.57;16.47;;;16.70;99.90;;;;;;5010174;28;20462;-81
2022/10/26 08:03:32;;;;;;;19.87;18.37;;;16.70;99.90;;;;;;5012147;28;20790;-81
2022/10/26 08:05:59;;;;;;;19.30;17.90;;;16.70;99.90;;;;;;5012098;28;20444;-82
2022/10/26 08:08:26;;;;;;;17.70;16.70;;;16.60;99.90;;;;;;5012477;28;20453;-81
2022/10/26 08:10:53;;;;;;;16.73;16.00;;;16.60;99.90;;;;;;5012538;28;20442;-82
2022/10/26 08:13:19;;;;;;;18.47;17.47;;;16.70;99.90;;;;;;5012175;28;20450;-82
2022/10/26 08:15:47;;;;;;;18.07;16.53;;;16.90;99.90;;;;;;5011737;28;20490;-82
2022/10/26 08:18:20;;;;;;;17.93;16.70;;;16.90;99.90;;;;;;5001089;28;20505;-83
2022/10/26 08:20:47;;;;;;;19.70;18.33;;;;;;;;;;4992518;28;20814;-82
2022/10/26 08:23:14;;;;;;;20.07;18.57;;;16.80;99.90;;;;;;4991796;28;20473;-82
2022/10/26 08:25:41;;;;;;;19.87;18.57;;;16.70;99.90;;;;;;4992038;28;20565;-81
2022/10/26 08:28:07;;;;;;;20.47;19.27;;;16.70;99.90;;;;;;4991992;28;20458;-81
2022/10/26 08:30:34;;;;;;;18.97;17.63;;;16.70;99.90;;;;;;4990670;28;20450;-81
2022/10/26 08:33:03;;;;;;;19.23;18.03;;;16.80;99.90;;;;;;4991916;28;20451;-81
2022/10/26 08:35:32;;;;;;;19.37;18.37;;;16.90;99.90;;;;;;5003906;28;20497;-80
2022/10/26 08:37:58;;;;;;;18.10;17.00;;;16.90;99.90;;;;;;5011471;28;20851;-80
2022/10/26 08:40:28;;;;;;;19.87;18.60;;;16.80;99.90;;;;;;5011726;28;20457;-78
2022/10/26 08:43:00;;;;;;;20.60;19.30;;;16.80;99.90;;;;;;5011626;28;20450;-79
2022/10/26 08:45:31;;;;;;;22.93;20.73;;;16.70;99.90;;;;;;5011469;28;20454;-79
2022/10/26 08:48:03;;;;;;;18.40;17.13;;;16.70;99.90;;;;;;5011268;28;20647;-79
2022/10/26 08:50:35;;;;;;;19.13;17.37;;;16.70;99.90;;;;;;5011537;28;20450;-77
2022/10/26 08:53:07;;;;;;;17.60;16.33;;;16.70;99.90;;;;;;5011182;28;20477;-78
2022/10/26 08:55:43;;;;;;;20.07;18.80;;;16.70;99.90;;;;;;5011002;28;20493;-78
2022/10/26 08:58:16;;;;;;;20.00;18.60;;;16.60;99.90;;;;;;5011443;28;20810;-78
2022/10/26 09:00:44;;;;;;;22.03;20.43;;;16.60;99.90;;;;;;5011507;28;20455;-78
2022/10/26 09:03:13;;;;;;;22.27;20.40;;;16.60;99.90;;;;;;5011305;28;20457;-79
2022/10/26 09:05:51;;;;;;;22.10;20.50;;;16.60;99.90;;;;;;5011248;28;20450;-80
2022/10/26 09:08:26;;;;;;;19.93;18.40;;;16.70;99.90;;;;;;5009405;28;20767;-79
2022/10/26 09:11:02;;;;;;;20.33;18.87;;;16.80;99.90;;;;;;4991501;28;20486;-76
2022/10/26 09:13:40;;;;;;;18.67;17.43;;;16.90;99.90;;;;;;4991526;28;20454;-79
2022/10/26 09:16:10;;;;;;;17.93;16.60;;;17.10;99.90;;;;;;4991141;28;20500;-80
2022/10/26 09:18:46;;;;;;;16.70;15.80;;;17.30;99.90;;;;;;4991421;28;20494;-80
2022/10/26 09:21:26;;;;;;;16.83;16.03;;;17.50;99.90;;;;;;4991235;28;20458;-78
2022/10/26 09:24:02;;;;;;;17.07;16.13;;;17.60;99.90;;;;;;4991111;28;20458;-78
2022/10/26 09:26:33;;;;;;;16.33;15.53;;;18.00;99.90;;;;;;4991048;28;20443;-77
2022/10/26 09:29:04;;;;;;;15.27;14.57;;;18.40;99.90;;;;;;4990834;28;20505;-77
2022/10/26 09:31:38;;;;;;;15.50;14.60;;;18.60;99.90;;;;;;4990714;28;20457;-79
2022/10/26 09:34:07;;;;;;;15.77;14.77;;;18.60;99.90;;;;;;4989357;28;21033;-78
2022/10/26 09:36:36;;;;;;;15.90;15.10;;;18.70;99.90;;;;;;4990690;28;20560;-80
2022/10/26 09:39:15;;;;;;;15.37;14.30;;;19.00;99.90;;;;;;4990969;28;20969;-79
2022/10/26 09:41:47;;;;;;;16.20;15.40;;;19.70;99.90;;;;;;4990899;28;20819;-79
2022/10/26 09:44:24;;;;;;;16.43;15.13;;;20.40;99.90;;;;;;4991311;28;20454;-79
2022/10/26 09:46:56;;;;;;;16.13;15.10;;;20.80;99.90;;;;;;4990609;28;20545;-79
2022/10/26 09:49:30;;;;;;;15.77;14.87;;;21.00;99.90;;;;;;4991344;28;20458;-80
2022/10/26 09:51:58;;;;;;;14.93;14.13;;;21.90;99.90;;;;;;4991271;28;20458;-78
2022/10/26 09:54:25;;;;;;;15.80;14.90;;;22.90;99.90;;;;;;4990935;28;20458;-81
2022/10/26 09:56:55;;;;;;;15.53;14.57;;;23.40;99.90;;;;;;4990894;28;20486;-79
2022/10/26 09:59:24;;;;;;;15.93;14.83;;;23.60;99.90;;;;;;4997564;28;20820;-79
2022/10/26 10:01:51;;;;;;;18.13;16.73;;;23.80;99.90;;;;;;5010819;28;20450;-79
2022/10/26 10:04:21;;;;;;;16.00;14.80;;;23.80;99.90;;;;;;5010647;28;20450;-78
2022/10/26 10:06:49;;;;;;;16.37;15.17;;;24.10;99.90;;;;;;5010916;28;20641;-78
2022/10/26 10:09:19;;;;;;;16.97;15.90;;;23.80;99.90;;;;;;5010768;28;20453;-79
2022/10/26 10:11:53;;;;;;;14.83;13.73;;;23.10;99.90;;;;;;5010992;28;20799;-79
2022/10/26 10:14:22;;;;;;;18.00;16.47;;;22.20;99.90;;;;;;5010857;28;20986;-79
2022/10/26 10:16:56;;;;;;;17.07;15.67;;;21.60;99.90;;;;;;5010479;28;20862;-78
2022/10/26 10:19:26;;;;;;;17.53;16.43;;;21.50;99.90;;;;;;5010146;28;20517;-78
2022/10/26 10:21:56;;;;;;;18.13;16.60;;;21.50;99.90;;;;;;5010635;28;20453;-77
2022/10/26 10:24:27;;;;;;;16.17;14.97;;;21.50;99.90;;;;;;5009064;28;20461;-78
2022/10/26 10:26:59;;;;;;;18.20;17.10;;;21.50;99.90;;;;;;5010698;28;20453;-79
2022/10/26 10:29:26;;;;;;;18.13;16.80;;;21.30;99.90;;;;;;5010730;28;20941;-77
2022/10/26 10:31:56;;;;;;;17.70;16.33;;;21.20;99.90;;;;;;5010554;28;20457;-78
2022/10/26 10:34:23;;;;;;;16.37;15.30;;;21.30;99.90;;;;;;5010511;28;20816;-78
2022/10/26 10:36:50;;;;;;;18.40;17.10;;;21.60;99.90;;;;;;5010348;28;20494;-78
2022/10/26 10:39:42;;;;;;;17.23;16.30;;;22.00;99.90;;;;;;5010153;28;20459;-78
2022/10/26 10:42:18;;;;;;;17.40;16.30;;;22.40;99.90;;;;;;4995411;28;20449;-79
2022/10/26 10:44:46;;;;;;;17.07;15.73;;;22.50;99.90;;;;;;5010327;28;20940;-78
2022/10/26 10:47:22;;;;;;;15.07;14.23;;;22.60;99.90;;;;;;5010196;28;20450;-79
2022/10/26 10:49:55;;;;;;;15.63;14.63;;;22.90;99.90;;;;;;5009930;28;20449;-79
2022/10/26 10:52:26;;;;;;;15.40;14.27;;;23.50;99.90;;;;;;5010004;28;20450;-77
2022/10/26 10:55:03;;;;;;;15.07;14.17;;;23.90;99.90;;;;;;5013294;28;21149;-78
2022/10/26 10:57:38;;;;;;;15.80;14.50;;;24.10;99.90;;;;;;5014316;28;20457;-79
2022/10/26 11:00:06;;;;;;;14.60;13.73;;;24.50;99.90;;;;;;5014318;28;20457;-77
2022/10/26 11:03:04;;;;;;;14.50;13.70;;;24.60;99.90;;;;;;5012199;28;20469;-76
2022/10/26 11:05:50;;;;;;;15.83;14.50;;;24.60;99.90;;;;;;5013781;28;20813;-77
2022/10/26 11:08:21;;;;;;;14.77;14.10;;;24.30;99.90;;;;;;5012367;28;20469;-77
2022/10/26 11:10:52;;;;;;;14.50;13.60;;;24.60;99.50;;;;;;5013581;28;21017;-79
2022/10/26 11:13:24;;;;;;;15.50;14.40;;;25.20;98.60;;;;;;4994233;28;20477;-79
2022/10/26 11:15:54;;;;;;;16.17;14.97;;;26.40;97.00;;;;;;4999184;28;20529;-79
2022/10/26 11:18:26;;;;;;;16.10;15.00;;;28.60;92.90;;;;;;5012776;28;20484;-79
2022/10/26 11:21:01;;;;;;;15.33;14.60;;;29.80;89.90;;;;;;5013157;28;20823;-79
2022/10/26 11:23:37;;;;;;;15.07;14.10;;;30.20;86.90;;;;;;5013746;28;20460;-78
2022/10/26 11:26:12;;;;;;;16.00;15.20;;;30.10;83.80;;;;;;5013416;28;20442;-78
2022/10/26 11:28:45;;;;;;;14.97;14.20;;;30.10;84.10;;;;;;5013697;28;20449;-79
2022/10/26 11:31:18;;;;;;;16.20;15.20;;;29.50;83.70;;;;;;5013681;28;20456;-79
2022/10/26 11:33:53;;;;;;;16.37;15.27;;;29.10;86.20;;;;;;5013864;28;20449;-79
2022/10/26 11:36:24;;;;;;;15.47;14.47;;;28.60;87.60;;;;;;5013375;28;20484;-78
2022/10/26 11:38:58;;;;;;;15.57;14.77;;;27.90;89.00;;;;;;5012950;28;20454;-78
2022/10/26 11:41:33;;;;;;;15.83;14.87;;;27.60;90.50;;;;;;5011989;28;20457;-78
2022/10/26 11:44:09;;;;;;;14.87;13.83;;;27.30;91.40;;;;;;5013166;28;20461;-78
2022/10/26 11:46:38;;;;;;;15.23;14.33;;;26.90;91.70;;;;;;5013132;28;20832;-78
2022/10/26 11:49:14;;;;;;;14.67;13.83;;;26.90;92.00;;;;;;5012886;28;20456;-78
2022/10/26 11:51:46;;;;;;;13.47;12.67;;;26.90;92.00;;;;;;5013037;28;20459;-79
2022/10/26 11:54:19;;;;;;;14.43;13.53;;;27.20;91.40;;;;;;5012836;28;20465;-79
2022/10/26 11:56:49;;;;;;;14.53;13.93;;;27.20;91.20;;;;;;5012732;28;20485;-79
2022/10/26 11:59:20;;;;;;;15.50;14.50;;;27.20;91.30;;;;;;5012544;28;20457;-79
2022/10/26 12:01:49;;;;;;;14.93;13.77;;;27.60;91.60;;;;;;5012562;28;20480;-79
2022/10/26 12:04:18;;;;;;;15.17;14.27;;;28.20;88.50;;;;;;5012269;28;20456;-80
2022/10/26 12:06:47;;;;;;;15.73;14.80;;;27.90;88.40;;;;;;5012784;28;20537;-80
2022/10/26 12:09:18;;;;;;;15.80;15.10;;;27.00;90.00;;;;;;5013125;28;20454;-80
2022/10/26 12:11:51;;;;;;;15.47;14.77;;;27.20;91.10;;;;;;5013521;28;20460;-81
2022/10/26 12:14:24;;;;;;;15.53;14.47;;;28.00;89.60;;;;;;5012685;28;20797;-80
2022/10/26 12:16:59;;;;;;;15.27;14.57;;;27.90;88.30;;;;;;5011977;28;20489;-80
2022/10/26 12:19:31;;;;;;;15.87;14.77;;;27.60;89.90;;;;;;5012950;28;20457;-81
2022/10/26 12:21:58;;;;;;;16.10;14.93;;;27.50;90.10;;;;;;5013268;28;20454;-79
2022/10/26 12:24:27;;;;;;;14.90;14.20;;;27.30;90.90;;;;;;5012820;28;20445;-79
2022/10/26 12:26:57;;;;;;;15.10;14.30;;;27.40;90.30;;;;;;5012878;28;20453;-80
2022/10/26 12:29:38;;;;;;;15.20;14.50;;;27.40;91.00;;;;;;5012808;28;20450;-81
2022/10/26 12:32:49;;;;;;;15.80;14.50;;;27.50;90.60;;;;;;5013076;28;20899;-82
2022/10/26 12:35:41;;;;;;;15.57;14.60;;;27.70;89.30;;;;;;5012836;28;20461;-80
2022/10/26 12:38:48;;;;;;;14.53;13.83;;;27.80;88.60;;;;;;5012480;28;20453;-81
2022/10/26 12:41:21;;;;;;;15.23;14.50;;;27.50;88.80;;;;;;5011969;28;20862;-80
2022/10/26 12:43:48;;;;;;;14.50;13.60;;;27.20;90.60;;;;;;5012037;28;20468;-80
2022/10/26 12:46:44;;;;;;;15.57;14.70;;;26.90;90.20;;;;;;5011952;28;20457;-79
2022/10/26 12:49:58;;;;;;;14.20;13.60;;;26.60;91.20;;;;;;5012032;28;20538;-80